createdAt,value
2022-09-26T00:05:39.843Z,10.3
2022-09-26T00:11:01.162Z,10.5
2022-09-26T04:50:05.419Z,10.4
2022-09-26T04:55:43.630Z,10.3
2022-09-26T05:01:19.558Z,10.5
2022-09-26T05:07:01.825Z,10.6
2022-09-26T05:12:44.358Z,10.9
2022-09-26T05:18:25.980Z,11.4
2022-09-26T05:23:47.980Z,11.8
2022-09-26T05:29:26.151Z,12.1
2022-09-26T05:34:52.854Z,13.1
2022-09-26T05:40:16.064Z,13.4
2022-09-26T05:45:54.578Z,13.5
2022-09-26T05:51:34.015Z,13.3
2022-09-26T05:57:12.181Z,13.4
2022-09-26T06:02:37.639Z,14.1
2022-09-26T06:08:14.985Z,14.8
2022-09-26T06:13:57.885Z,15.6
2022-09-26T06:19:39.599Z,14.9
2022-09-26T06:25:17.107Z,15.6
2022-09-26T06:30:54.989Z,15.8
2022-09-26T06:36:36.251Z,16.1
2022-09-26T06:42:17.282Z,16.4
2022-09-26T06:47:39.826Z,16.7
2022-09-26T06:53:03.329Z,17.9
2022-09-26T06:58:50.141Z,17.5
2022-09-26T07:04:18.839Z,17.8
2022-09-26T07:10:09.024Z,18.8
2022-09-26T07:16:29.189Z,18.1
2022-09-26T07:21:51.300Z,18.2
2022-09-26T07:32:22.536Z,18.9
2022-09-26T07:37:50.135Z,18.4
2022-09-26T07:44:19.096Z,18.5
2022-09-26T07:55:40.921Z,19.8
2022-09-26T08:01:03.526Z,20.4
2022-09-26T08:06:29.527Z,19.8
2022-09-26T08:11:54.509Z,21.3
2022-09-26T08:17:17.228Z,21.3
2022-09-26T08:22:39.670Z,21.8
2022-09-26T08:28:01.730Z,22.5
2022-09-26T08:33:25.440Z,22.5
2022-09-26T08:38:48.128Z,22.6
2022-09-26T08:44:10.531Z,22.2
2022-09-26T08:49:33.422Z,22.3
2022-09-26T08:54:39.267Z,23.4
2022-09-26T09:00:17.252Z,22.8
2022-09-26T14:26:18.651Z,23.6
2022-09-26T14:31:27.011Z,23.5
2022-09-26T14:36:52.641Z,23.4
2022-09-26T14:42:15.060Z,23.4
2022-09-26T14:47:38.369Z,23.4
2022-09-26T14:52:44.895Z,23.3
2022-09-26T14:58:11.435Z,23.4
2022-09-26T15:03:35.089Z,23.3
2022-09-26T15:08:41.887Z,23.2
2022-09-26T15:14:04.314Z,23.1
2022-09-26T15:19:27.370Z,23.1
2022-09-26T15:24:48.615Z,23
2022-09-26T15:30:11.054Z,23
2022-09-26T15:35:35.508Z,22.9
2022-09-26T15:40:58.001Z,22.9
2022-09-26T15:46:26.350Z,22.8
2022-09-26T15:51:33.698Z,22.8
2022-09-26T15:57:14.528Z,22.8
2022-09-26T16:02:37.246Z,22.7
2022-09-26T16:08:20.221Z,22.7
2022-09-26T16:14:00.171Z,22.6
2022-09-26T16:19:38.049Z,22.5
2022-09-26T16:25:22.499Z,22.4
2022-09-26T16:31:00.655Z,22.4
2022-09-26T16:36:38.321Z,22.4
2022-09-26T16:42:12.954Z,22.4
2022-09-26T16:47:58.076Z,22.3
2022-09-26T16:53:41.151Z,22.1
2022-09-26T16:59:19.395Z,22.1
2022-09-26T17:04:57.327Z,21.8
2022-09-26T17:10:34.976Z,21.8
2022-09-26T17:16:13.347Z,21.5
2022-09-26T17:21:51.000Z,21.4
2022-09-26T17:27:59.135Z,21.6
2022-09-26T17:33:38.373Z,21.6
2022-09-26T17:39:15.765Z,21.4
2022-09-26T17:44:53.561Z,20.7
2022-09-26T17:50:17.343Z,20.1
2022-09-26T17:55:39.666Z,19.8
2022-09-26T18:01:06.897Z,19.7
2022-09-26T18:06:30.369Z,19.9
2022-09-26T18:12:08.378Z,19.6
2022-09-26T18:17:46.884Z,19.4
2022-09-26T18:23:24.993Z,19.3
2022-09-26T18:29:07.172Z,19
